createdAt,value
2016-08-12T00:00:37.625Z,96
2016-08-12T00:01:38.340Z,96
2016-08-12T00:03:37.693Z,96
2016-08-12T00:04:38.353Z,96
2016-08-12T00:05:37.706Z,96
2016-08-12T00:06:38.368Z,96
2016-08-12T00:07:39.078Z,96
2016-08-12T00:08:38.375Z,96
2016-08-12T00:09:38.526Z,96
2016-08-12T00:10:38.393Z,96
2016-08-12T00:11:37.838Z,96
2016-08-12T00:12:37.696Z,96
2016-08-12T00:14:07.506Z,96
2016-08-12T00:14:38.417Z,96
2016-08-12T00:15:37.710Z,96
2016-08-12T00:16:37.714Z,96
2016-08-12T00:17:38.435Z,96
2016-08-12T00:18:37.725Z,96
2016-08-12T00:19:39.149Z,100
2016-08-12T00:20:38.457Z,96
2016-08-12T00:21:38.455Z,96
2016-08-12T00:22:37.755Z,96
2016-08-12T00:23:39.219Z,100
2016-08-12T00:24:39.402Z,96
2016-08-12T00:25:39.183Z,96
2016-08-12T00:26:39.186Z,96
2016-08-12T00:27:39.205Z,100
2016-08-12T00:28:38.491Z,96
2016-08-12T00:29:38.497Z,100
2016-08-12T00:30:37.089Z,96
2016-08-12T00:31:37.595Z,96
2016-08-12T00:32:39.277Z,96
2016-08-12T00:33:40.061Z,96
2016-08-12T00:34:39.234Z,96
2016-08-12T00:35:40.036Z,96
2016-08-12T00:36:37.124Z,96
2016-08-12T00:37:37.128Z,96
2016-08-12T00:38:39.257Z,96
2016-08-12T00:39:39.261Z,96
2016-08-12T00:40:38.586Z,96
2016-08-12T00:41:39.279Z,96
2016-08-12T00:42:37.154Z,96
2016-08-12T00:43:37.878Z,96
2016-08-12T00:44:39.436Z,96
2016-08-12T00:45:38.597Z,96
2016-08-12T00:46:38.842Z,96
2016-08-12T00:47:38.602Z,96
2016-08-12T00:48:38.151Z,96
2016-08-12T00:49:38.609Z,100
2016-08-12T00:50:38.614Z,96
2016-08-12T00:51:37.212Z,96
2016-08-12T00:52:39.333Z,96
2016-08-12T00:53:37.231Z,96
2016-08-12T00:54:39.351Z,96
2016-08-12T00:55:39.354Z,96
2016-08-12T00:56:39.360Z,96
2016-08-12T00:57:39.457Z,96
2016-08-12T00:58:38.706Z,96
2016-08-12T00:59:39.380Z,96
2016-08-12T01:00:39.440Z,100
2016-08-12T01:01:38.674Z,96
2016-08-12T01:02:39.387Z,96
2016-08-12T01:03:38.697Z,96
2016-08-12T01:04:38.745Z,96
2016-08-12T01:05:38.750Z,96
2016-08-12T01:06:38.705Z,96
2016-08-12T01:07:37.299Z,100
2016-08-12T01:08:39.519Z,96
2016-08-12T01:09:38.732Z,96
2016-08-12T01:10:38.725Z,96
2016-08-12T01:11:38.732Z,96
2016-08-12T01:12:38.736Z,96
2016-08-12T01:13:39.957Z,96
2016-08-12T01:14:37.350Z,96
2016-08-12T01:15:39.464Z,96
2016-08-12T01:16:38.056Z,96
2016-08-12T01:17:38.766Z,100
2016-08-12T01:18:37.354Z,100
2016-08-12T01:19:39.735Z,96
2016-08-12T01:20:38.083Z,96
2016-08-12T01:21:38.789Z,100
2016-08-12T01:22:38.087Z,96
2016-08-12T01:23:39.509Z,96
2016-08-12T01:24:37.390Z,96
2016-08-12T01:25:39.528Z,96
2016-08-12T01:26:38.119Z,96
2016-08-12T01:27:39.533Z,96
2016-08-12T01:28:38.187Z,96
2016-08-12T01:29:38.131Z,100
2016-08-12T01:30:38.994Z,96
2016-08-12T01:31:38.849Z,96
2016-08-12T01:32:40.359Z,96
2016-08-12T01:34:38.910Z,96
2016-08-12T01:35:38.170Z,96
2016-08-12T01:36:38.896Z,96
2016-08-12T01:37:38.174Z,100
2016-08-12T01:38:39.602Z,96
2016-08-12T01:39:38.892Z,96
2016-08-12T01:40:38.914Z,96
2016-08-12T01:41:38.996Z,92
2016-08-12T01:42:38.929Z,100
2016-08-12T01:43:40.671Z,96
2016-08-12T01:44:39.634Z,96
2016-08-12T01:45:39.129Z,96
2016-08-12T01:46:39.640Z,96
2016-08-12T01:47:38.940Z,96
2016-08-12T01:48:38.950Z,96
2016-08-12T01:49:38.245Z,96
2016-08-12T01:50:38.250Z,96
2016-08-12T01:51:38.253Z,96
2016-08-12T01:52:39.315Z,96
2016-08-12T01:53:38.266Z,96
2016-08-12T01:54:38.271Z,96
2016-08-12T01:55:38.986Z,96
2016-08-12T01:56:39.790Z,96
2016-08-12T01:57:38.995Z,100
2016-08-12T01:58:39.003Z,100
2016-08-12T01:59:38.306Z,96
2016-08-12T02:00:39.013Z,96
2016-08-12T02:01:39.778Z,100
2016-08-12T02:02:39.034Z,96
2016-08-12T02:04:38.327Z,96
2016-08-12T02:05:39.992Z,96
2016-08-12T02:06:39.051Z,100
2016-08-12T02:07:38.503Z,96
2016-08-12T02:08:38.352Z,96
2016-08-12T02:09:39.066Z,96
2016-08-12T02:10:37.659Z,96
2016-08-12T02:11:38.370Z,96
2016-08-12T02:12:39.800Z,96
2016-08-12T02:13:38.435Z,96
2016-08-12T02:14:38.385Z,96
2016-08-12T02:15:39.104Z,96
2016-08-12T02:16:39.504Z,100
2016-08-12T02:17:39.870Z,96
2016-08-12T02:18:39.286Z,96
2016-08-12T02:19:39.826Z,96
2016-08-12T02:20:39.925Z,96
2016-08-12T02:21:39.134Z,96
2016-08-12T02:22:38.484Z,96
2016-08-12T02:23:39.145Z,96
2016-08-12T02:24:39.148Z,96
2016-08-12T02:25:39.158Z,96
2016-08-12T02:26:38.471Z,96
2016-08-12T02:27:39.622Z,96
2016-08-12T02:28:39.180Z,96
2016-08-12T02:29:38.723Z,96
2016-08-12T02:30:38.472Z,96
2016-08-12T02:31:37.775Z,100
2016-08-12T02:32:39.957Z,96
2016-08-12T02:33:37.803Z,96
2016-08-12T02:34:40.067Z,96
2016-08-12T02:35:39.921Z,96
2016-08-12T02:36:39.220Z,96
2016-08-12T02:37:37.806Z,96
2016-08-12T02:38:39.171Z,96
2016-08-12T02:39:39.239Z,96
2016-08-12T02:40:39.238Z,96
2016-08-12T02:41:39.251Z,96
2016-08-12T02:42:38.546Z,96
2016-08-12T02:43:39.963Z,96
2016-08-12T02:44:39.968Z,96
2016-08-12T02:45:39.981Z,96
2016-08-12T02:46:38.590Z,96
2016-08-12T02:47:39.279Z,96
2016-08-12T02:49:39.293Z,96
2016-08-12T02:50:39.302Z,96
2016-08-12T02:51:39.299Z,96
2016-08-12T02:52:39.313Z,96
2016-08-12T02:53:40.621Z,96
2016-08-12T02:54:38.613Z,96
2016-08-12T02:55:39.334Z,96
2016-08-12T02:56:38.627Z,96
2016-08-12T02:57:40.043Z,96
2016-08-12T02:58:40.049Z,96
2016-08-12T02:59:39.350Z,96
2016-08-12T03:00:40.059Z,96
2016-08-12T03:01:39.366Z,96
2016-08-12T03:02:40.471Z,96
2016-08-12T03:03:38.705Z,96
2016-08-12T03:04:40.284Z,96
2016-08-12T03:05:38.675Z,96
2016-08-12T03:06:40.896Z,96
2016-08-12T03:07:37.979Z,96
2016-08-12T03:08:38.761Z,96
2016-08-12T03:09:39.404Z,96
2016-08-12T03:10:38.709Z,92
2016-08-12T03:11:39.420Z,96
2016-08-12T03:12:39.422Z,96
2016-08-12T03:13:40.428Z,96
2016-08-12T03:14:38.726Z,92
2016-08-12T03:15:40.452Z,96
2016-08-12T03:16:39.447Z,96
2016-08-12T03:17:40.203Z,96
2016-08-12T03:19:39.473Z,96
2016-08-12T03:20:38.837Z,96
2016-08-12T03:21:40.182Z,96
2016-08-12T03:22:39.481Z,96
2016-08-12T03:23:38.076Z,96
2016-08-12T03:24:41.302Z,96
2016-08-12T03:25:39.499Z,96
2016-08-12T03:26:39.504Z,96
2016-08-12T03:27:38.853Z,96
2016-08-12T03:28:38.114Z,96
2016-08-12T03:29:38.816Z,96
2016-08-12T03:30:38.824Z,96
2016-08-12T03:31:39.532Z,96
2016-08-12T03:32:38.832Z,96
2016-08-12T03:34:40.250Z,96
2016-08-12T03:35:39.555Z,96
2016-08-12T03:36:39.565Z,96
2016-08-12T03:37:41.522Z,96
2016-08-12T03:38:39.624Z,96
2016-08-12T03:39:40.675Z,96
2016-08-12T03:40:38.876Z,96
2016-08-12T03:41:40.296Z,96
2016-08-12T03:42:38.896Z,96
2016-08-12T03:43:38.897Z,96
2016-08-12T03:44:38.907Z,96
2016-08-12T03:45:40.319Z,96
2016-08-12T03:46:39.621Z,96
2016-08-12T03:47:38.913Z,96
2016-08-12T03:48:40.936Z,96
2016-08-12T03:49:38.925Z,96
2016-08-12T03:50:40.292Z,96
2016-08-12T03:51:39.647Z,96
2016-08-12T03:52:38.944Z,96
2016-08-12T03:53:39.658Z,96
2016-08-12T03:54:39.005Z,96
2016-08-12T03:55:39.671Z,96
2016-08-12T03:56:39.669Z,96
2016-08-12T03:57:39.677Z,96
2016-08-12T03:58:40.408Z,96
2016-08-12T03:59:38.982Z,92
2016-08-12T04:00:38.986Z,96
2016-08-12T04:01:40.160Z,96
2016-08-12T04:02:38.999Z,96
2016-08-12T04:03:40.665Z,96
2016-08-12T04:04:39.014Z,96
2016-08-12T04:05:39.725Z,96
2016-08-12T04:06:39.776Z,96
2016-08-12T04:07:40.447Z,96
2016-08-12T04:08:39.034Z,96
2016-08-12T04:09:39.747Z,96
2016-08-12T04:10:40.156Z,96
2016-08-12T04:11:39.762Z,96
2016-08-12T04:12:41.444Z,96
2016-08-12T04:13:39.064Z,96
2016-08-12T04:14:41.047Z,96
2016-08-12T04:15:39.070Z,96
2016-08-12T04:16:39.798Z,96
2016-08-12T04:17:39.088Z,100
2016-08-12T04:18:39.847Z,100
2016-08-12T04:19:39.097Z,96
2016-08-12T04:20:39.164Z,100
2016-08-12T04:21:39.108Z,100
2016-08-12T04:22:39.180Z,96
2016-08-12T04:23:39.123Z,100
2016-08-12T04:24:39.837Z,100
2016-08-12T04:25:43.188Z,100
2016-08-12T04:26:40.552Z,100
2016-08-12T04:27:39.849Z,100
2016-08-12T04:28:39.856Z,100
2016-08-12T04:29:39.206Z,100
2016-08-12T04:30:40.576Z,100
2016-08-12T04:31:39.874Z,100
2016-08-12T04:32:39.171Z,100
2016-08-12T04:33:40.596Z,104
2016-08-12T04:34:39.331Z,100
2016-08-12T04:35:39.188Z,100
2016-08-12T04:36:39.198Z,100
2016-08-12T04:37:39.911Z,104
2016-08-12T04:38:39.915Z,104
2016-08-12T04:39:40.640Z,104
2016-08-12T04:40:39.986Z,104
2016-08-12T04:41:39.223Z,108
2016-08-12T04:42:38.524Z,104
2016-08-12T04:43:40.652Z,104
2016-08-12T04:44:39.946Z,104
2016-08-12T04:45:41.635Z,104
2016-08-12T04:46:39.962Z,100
2016-08-12T04:47:41.182Z,100
2016-08-12T04:48:40.680Z,104
2016-08-12T04:49:39.981Z,104
2016-08-12T04:50:40.694Z,108
2016-08-12T04:51:39.281Z,104
2016-08-12T04:52:39.298Z,104
2016-08-12T04:53:40.727Z,100
2016-08-12T04:54:40.044Z,104
2016-08-12T04:55:40.011Z,104
2016-08-12T04:56:40.016Z,100
2016-08-12T04:57:40.731Z,104
2016-08-12T04:58:40.687Z,108
2016-08-12T04:59:38.622Z,108
2016-08-12T05:00:40.048Z,112
2016-08-12T05:01:39.340Z,108
2016-08-12T05:02:40.759Z,112
2016-08-12T05:03:39.348Z,112
2016-08-12T05:04:40.062Z,116
2016-08-12T05:05:40.086Z,116
2016-08-12T05:06:39.367Z,120
2016-08-12T05:07:40.083Z,120
2016-08-12T05:08:38.670Z,124
2016-08-12T05:09:41.141Z,120
2016-08-12T05:10:40.093Z,120
2016-08-12T05:11:39.599Z,120
2016-08-12T05:12:40.106Z,120
2016-08-12T05:13:40.126Z,120
2016-08-12T05:14:40.130Z,116
2016-08-12T05:15:40.832Z,112
2016-08-12T05:16:39.428Z,112
2016-08-12T05:17:39.438Z,112
2016-08-12T05:18:40.146Z,112
2016-08-12T05:19:39.451Z,112
2016-08-12T05:20:41.065Z,112
2016-08-12T05:21:40.168Z,112
2016-08-12T05:22:39.658Z,112
2016-08-12T05:23:40.176Z,112
2016-08-12T05:24:38.779Z,112
2016-08-12T05:25:40.181Z,112
2016-08-12T05:26:39.484Z,112
2016-08-12T05:27:40.198Z,116
2016-08-12T05:28:39.544Z,116
2016-08-12T05:29:39.503Z,116
2016-08-12T05:30:40.220Z,116
2016-08-12T05:31:40.067Z,112
2016-08-12T05:32:39.527Z,116
2016-08-12T05:33:39.520Z,116
2016-08-12T05:34:41.050Z,116
2016-08-12T05:35:38.889Z,116
2016-08-12T05:36:40.254Z,116
2016-08-12T05:37:40.254Z,116
2016-08-12T05:38:40.322Z,116
2016-08-12T05:39:40.270Z,116
2016-08-12T05:40:39.567Z,116
2016-08-12T05:41:39.624Z,116
2016-08-12T05:42:40.337Z,120
2016-08-12T05:43:39.589Z,116
2016-08-12T05:44:41.653Z,120
2016-08-12T05:45:41.007Z,120
2016-08-12T05:46:40.102Z,120
2016-08-12T05:47:41.020Z,120
2016-08-12T05:48:39.609Z,120
2016-08-12T05:49:39.615Z,120
2016-08-12T05:50:41.041Z,120
2016-08-12T05:51:39.630Z,124
2016-08-12T05:52:41.052Z,124
2016-08-12T05:53:39.789Z,124
2016-08-12T05:54:39.647Z,120
2016-08-12T05:55:41.872Z,124
2016-08-12T05:56:39.662Z,124
2016-08-12T05:57:40.376Z,120
2016-08-12T05:58:41.083Z,120
2016-08-12T05:59:38.972Z,120
2016-08-12T06:00:41.098Z,124
2016-08-12T06:01:40.394Z,116
2016-08-12T06:02:39.692Z,116
2016-08-12T06:03:39.695Z,116
2016-08-12T06:04:39.704Z,116
2016-08-12T06:05:39.709Z,116
2016-08-12T06:06:41.222Z,116
2016-08-12T06:07:39.721Z,116
2016-08-12T06:08:40.480Z,124
2016-08-12T06:09:41.146Z,128
2016-08-12T06:10:39.738Z,120
2016-08-12T06:11:39.034Z,124
2016-08-12T06:12:39.799Z,120
2016-08-12T06:13:39.754Z,116
2016-08-12T06:14:40.474Z,116
2016-08-12T06:15:41.183Z,116
2016-08-12T06:16:41.190Z,112
2016-08-12T06:17:41.438Z,112
2016-08-12T06:18:40.493Z,112
2016-08-12T06:19:40.499Z,112
2016-08-12T06:20:40.508Z,116
2016-08-12T06:21:39.101Z,124
2016-08-12T06:22:40.520Z,128
2016-08-12T06:23:40.517Z,136
2016-08-12T06:24:40.573Z,136
2016-08-12T06:25:39.825Z,144
2016-08-12T06:26:40.537Z,152
2016-08-12T06:27:40.593Z,152
2016-08-12T06:28:41.045Z,148
2016-08-12T06:29:39.847Z,148
2016-08-12T06:30:39.855Z,156
2016-08-12T06:31:40.615Z,164
2016-08-12T06:32:40.837Z,160
2016-08-12T06:33:40.576Z,172
2016-08-12T06:34:40.592Z,168
2016-08-12T06:35:39.175Z,160
2016-08-12T06:36:39.999Z,160
2016-08-12T06:37:41.309Z,160
2016-08-12T06:38:39.919Z,160
2016-08-12T06:39:41.467Z,160
2016-08-12T06:40:40.619Z,160
2016-08-12T06:41:39.865Z,152
2016-08-12T06:42:40.631Z,148
2016-08-12T06:43:41.281Z,152
2016-08-12T06:44:40.691Z,148
2016-08-12T06:45:40.652Z,144
2016-08-12T06:46:40.705Z,156
2016-08-12T06:47:41.368Z,164
2016-08-12T06:48:39.953Z,168
2016-08-12T06:49:39.968Z,176
2016-08-12T06:50:39.968Z,188
2016-08-12T06:51:39.977Z,208
2016-08-12T06:52:39.982Z,212
2016-08-12T06:53:41.406Z,212
2016-08-12T06:54:41.454Z,232
2016-08-12T06:55:39.997Z,248
2016-08-12T06:56:41.422Z,256
2016-08-12T06:57:40.715Z,264
2016-08-12T06:58:40.719Z,296
2016-08-12T06:59:40.724Z,268
2016-08-12T07:00:40.733Z,264
2016-08-12T07:01:40.796Z,228
2016-08-12T07:02:41.449Z,220
2016-08-12T07:03:39.437Z,232
2016-08-12T07:04:40.052Z,224
2016-08-12T07:05:40.804Z,224
2016-08-12T07:06:41.521Z,240
2016-08-12T07:07:39.357Z,232
2016-08-12T07:08:40.071Z,212
2016-08-12T07:09:39.371Z,224
2016-08-12T07:10:40.792Z,228
2016-08-12T07:11:40.803Z,212
2016-08-12T07:12:40.800Z,196
2016-08-12T07:13:40.106Z,196
2016-08-12T07:14:41.867Z,192
2016-08-12T07:15:40.821Z,196
2016-08-12T07:16:41.127Z,192
2016-08-12T07:17:40.123Z,196
2016-08-12T07:18:42.448Z,220
2016-08-12T07:19:40.842Z,212
2016-08-12T07:20:40.154Z,216
2016-08-12T07:21:40.148Z,216
2016-08-12T07:22:41.566Z,196
2016-08-12T07:23:40.869Z,196
2016-08-12T07:24:40.873Z,196
2016-08-12T07:25:42.010Z,200
2016-08-12T07:26:40.884Z,192
2016-08-12T07:27:41.398Z,200
2016-08-12T07:28:40.913Z,224
2016-08-12T07:29:42.199Z,248
2016-08-12T07:30:40.906Z,224
2016-08-12T07:31:41.012Z,220
2016-08-12T07:32:40.977Z,224
2016-08-12T07:33:40.931Z,244
2016-08-12T07:34:40.932Z,248
2016-08-12T07:35:41.640Z,240
2016-08-12T07:36:39.524Z,240
2016-08-12T07:37:40.953Z,248
2016-08-12T07:38:40.955Z,268
2016-08-12T07:39:40.302Z,268
2016-08-12T07:40:42.810Z,268
2016-08-12T07:41:40.262Z,268
2016-08-12T07:42:41.690Z,276
2016-08-12T07:43:41.710Z,276
2016-08-12T07:44:41.702Z,276
2016-08-12T07:45:40.440Z,268
2016-08-12T07:46:41.715Z,264
2016-08-12T07:47:40.358Z,276
2016-08-12T07:48:40.363Z,296
2016-08-12T07:49:40.482Z,268
2016-08-12T07:50:41.071Z,292
2016-08-12T07:51:41.875Z,276
2016-08-12T07:52:41.043Z,332
2016-08-12T07:53:41.756Z,356
2016-08-12T07:54:40.343Z,388
2016-08-12T07:55:41.048Z,372
2016-08-12T07:56:41.069Z,328
2016-08-12T07:57:39.697Z,328
2016-08-12T07:58:41.066Z,360
2016-08-12T07:59:41.782Z,344
2016-08-12T08:00:42.774Z,308
2016-08-12T08:01:41.135Z,320
2016-08-12T08:02:41.540Z,308
2016-08-12T08:03:41.803Z,308
2016-08-12T08:04:40.768Z,284
2016-08-12T08:05:40.407Z,280
2016-08-12T08:06:41.120Z,288
2016-08-12T08:07:41.827Z,232
2016-08-12T08:08:41.196Z,228
2016-08-12T08:09:40.425Z,260
2016-08-12T08:10:40.433Z,240
2016-08-12T08:11:41.048Z,256
2016-08-12T08:12:41.860Z,268
2016-08-12T08:13:42.473Z,272
2016-08-12T08:14:41.870Z,264
2016-08-12T08:15:41.894Z,272
2016-08-12T08:16:40.465Z,304
2016-08-12T08:17:39.774Z,272
2016-08-12T08:18:40.485Z,232
2016-08-12T08:19:39.804Z,228
2016-08-12T08:20:41.200Z,236
2016-08-12T08:21:41.204Z,232
2016-08-12T08:22:41.917Z,228
2016-08-12T08:23:41.974Z,236
2016-08-12T08:24:41.771Z,220
2016-08-12T08:25:40.520Z,228
2016-08-12T08:26:41.235Z,264
2016-08-12T08:27:41.948Z,256
2016-08-12T08:28:41.242Z,300
2016-08-12T08:29:40.590Z,312
2016-08-12T08:30:40.556Z,308
2016-08-12T08:31:41.312Z,296
2016-08-12T08:32:40.563Z,324
2016-08-12T08:33:41.325Z,344
2016-08-12T08:35:43.105Z,388
2016-08-12T08:36:41.289Z,416
2016-08-12T08:37:41.603Z,444
2016-08-12T08:38:41.303Z,384
2016-08-12T08:39:40.602Z,348
2016-08-12T08:40:41.318Z,408
2016-08-12T08:41:41.319Z,436
2016-08-12T08:42:41.324Z,404
2016-08-12T08:43:40.689Z,460
2016-08-12T08:44:39.931Z,476
2016-08-12T08:45:41.403Z,492
2016-08-12T08:46:39.937Z,560
2016-08-12T08:47:40.653Z,556
2016-08-12T08:48:41.153Z,548
2016-08-12T08:50:40.716Z,452
2016-08-12T08:51:40.671Z,404
2016-08-12T08:52:40.727Z,388
2016-08-12T08:53:39.973Z,384
2016-08-12T08:54:40.695Z,432
2016-08-12T08:55:41.402Z,460
2016-08-12T08:56:41.406Z,440
2016-08-12T08:57:42.325Z,420
2016-08-12T08:58:40.714Z,444
2016-08-12T08:59:41.525Z,424
2016-08-12T09:00:40.725Z,372
2016-08-12T09:01:41.986Z,376
2016-08-12T09:02:40.736Z,408
2016-08-12T09:03:40.743Z,416
2016-08-12T09:04:42.163Z,468
2016-08-12T09:05:42.165Z,468
2016-08-12T09:06:40.054Z,508
2016-08-12T09:07:41.477Z,524
2016-08-12T09:08:42.387Z,416
2016-08-12T09:09:40.784Z,364
2016-08-12T09:10:41.499Z,368
2016-08-12T09:11:41.502Z,352
2016-08-12T09:12:42.810Z,344
2016-08-12T09:13:40.803Z,324
2016-08-12T09:14:41.515Z,336
2016-08-12T09:15:40.809Z,380
2016-08-12T09:16:40.114Z,428
2016-08-12T09:17:40.833Z,380
2016-08-12T09:18:42.251Z,400
2016-08-12T09:19:41.644Z,440
2016-08-12T09:20:41.551Z,468
2016-08-12T09:21:41.556Z,508
2016-08-12T09:22:41.611Z,544
2016-08-12T09:23:41.512Z,456
2016-08-12T09:24:41.582Z,436
2016-08-12T09:25:40.922Z,408
2016-08-12T09:26:41.589Z,472
2016-08-12T09:27:41.587Z,432
2016-08-12T09:28:41.601Z,388
2016-08-12T09:29:40.895Z,356
2016-08-12T09:30:40.198Z,424
2016-08-12T09:31:40.909Z,496
2016-08-12T09:32:43.436Z,520
2016-08-12T09:33:42.432Z,540
2016-08-12T09:34:41.922Z,484
2016-08-12T09:35:42.401Z,432
2016-08-12T09:36:41.650Z,580
2016-08-12T09:37:40.942Z,696
2016-08-12T09:38:41.657Z,688
2016-08-12T09:39:42.373Z,500
2016-08-12T09:40:42.975Z,468
2016-08-12T09:41:43.884Z,484
2016-08-12T09:42:41.684Z,360
2016-08-12T09:43:55.908Z,288
2016-08-12T09:44:42.405Z,304
2016-08-12T09:45:41.494Z,312
2016-08-12T09:46:41.757Z,272
2016-08-12T09:47:41.007Z,272
2016-08-12T09:48:41.717Z,276
2016-08-12T09:49:41.730Z,256
2016-08-12T09:50:41.732Z,280
2016-08-12T09:51:42.444Z,340
2016-08-12T09:52:41.745Z,360
2016-08-12T09:53:41.043Z,352
2016-08-12T09:54:41.047Z,360
2016-08-12T09:55:42.469Z,336
2016-08-12T09:56:41.766Z,368
2016-08-12T09:57:41.077Z,332
2016-08-12T09:58:42.989Z,352
2016-08-12T09:59:41.075Z,300
2016-08-12T10:00:41.795Z,300
2016-08-12T10:01:41.846Z,276
2016-08-12T10:02:42.507Z,280
2016-08-12T10:03:42.512Z,288
2016-08-12T10:04:41.813Z,316
2016-08-12T10:05:40.574Z,320
2016-08-12T10:06:41.847Z,292
2016-08-12T10:07:41.882Z,268
2016-08-12T10:08:41.180Z,248
2016-08-12T10:09:42.363Z,216
2016-08-12T10:10:41.898Z,196
2016-08-12T10:11:42.629Z,196
2016-08-12T10:12:41.157Z,200
2016-08-12T10:13:41.965Z,200
2016-08-12T10:14:41.172Z,200
2016-08-12T10:15:41.883Z,200
2016-08-12T10:16:41.182Z,200
2016-08-12T10:17:41.890Z,204
2016-08-12T10:18:41.338Z,208
2016-08-12T10:19:41.957Z,220
2016-08-12T10:20:41.209Z,224
2016-08-12T10:21:41.914Z,220
2016-08-12T10:22:41.927Z,228
2016-08-12T10:23:41.926Z,276
2016-08-12T10:24:41.226Z,320
2016-08-12T10:25:41.229Z,324
2016-08-12T10:26:41.948Z,284
2016-08-12T10:27:42.664Z,292
2016-08-12T10:28:41.247Z,304
2016-08-12T10:29:42.937Z,296
2016-08-12T10:30:42.013Z,268
2016-08-12T10:31:43.579Z,244
2016-08-12T10:32:40.581Z,248
2016-08-12T10:33:43.393Z,256
2016-08-12T10:34:42.705Z,260
2016-08-12T10:35:41.297Z,304
2016-08-12T10:36:42.724Z,316
2016-08-12T10:37:40.646Z,304
2016-08-12T10:38:42.730Z,292
2016-08-12T10:39:42.021Z,284
2016-08-12T10:40:43.709Z,272
2016-08-12T10:41:42.030Z,252
2016-08-12T10:42:42.532Z,260
2016-08-12T10:43:41.384Z,264
2016-08-12T10:44:43.976Z,236
2016-08-12T10:45:41.351Z,220
2016-08-12T10:46:42.780Z,232
2016-08-12T10:47:42.067Z,292
2016-08-12T10:48:42.080Z,384
2016-08-12T10:49:41.370Z,432
2016-08-12T10:50:42.189Z,464
2016-08-12T10:51:42.090Z,452
2016-08-12T10:52:42.099Z,420
2016-08-12T10:53:42.046Z,428
2016-08-12T10:54:41.424Z,428
2016-08-12T10:55:44.099Z,436
2016-08-12T10:56:42.121Z,428
2016-08-12T10:57:42.131Z,424
2016-08-12T10:58:42.145Z,432
2016-08-12T10:59:42.151Z,444
2016-08-12T11:00:41.452Z,452
2016-08-12T11:01:42.856Z,404
2016-08-12T11:02:42.868Z,376
2016-08-12T11:03:42.163Z,336
2016-08-12T11:04:42.221Z,316
2016-08-12T11:05:41.475Z,304
2016-08-12T11:06:43.472Z,296
2016-08-12T11:07:41.477Z,276
2016-08-12T11:08:42.195Z,284
2016-08-12T11:09:42.960Z,296
2016-08-12T11:10:42.221Z,292
2016-08-12T11:11:42.213Z,292
2016-08-12T11:12:40.905Z,312
2016-08-12T11:13:42.287Z,292
2016-08-12T11:14:42.234Z,276
2016-08-12T11:15:43.099Z,288
2016-08-12T11:16:42.237Z,308
2016-08-12T11:17:43.200Z,308
2016-08-12T11:18:41.545Z,328
2016-08-12T11:19:42.403Z,340
2016-08-12T11:20:41.001Z,360
2016-08-12T11:21:42.980Z,388
2016-08-12T11:22:41.575Z,404
2016-08-12T11:23:41.628Z,412
2016-08-12T11:24:41.580Z,432
2016-08-12T11:25:43.006Z,436
2016-08-12T11:26:42.300Z,448
2016-08-12T11:27:41.605Z,496
2016-08-12T11:28:43.564Z,556
2016-08-12T11:29:40.916Z,624
2016-08-12T11:30:43.180Z,684
2016-08-12T11:31:43.038Z,696
2016-08-12T11:32:41.630Z,708
2016-08-12T11:33:43.000Z,676
2016-08-12T11:34:42.349Z,604
2016-08-12T11:35:41.711Z,520
2016-08-12T11:36:42.367Z,408
2016-08-12T11:37:43.073Z,892
2016-08-12T11:38:43.078Z,636
2016-08-12T11:39:43.747Z,604
2016-08-12T11:40:41.676Z,624
2016-08-12T11:41:44.067Z,752
2016-08-12T11:42:42.397Z,860
2016-08-12T11:43:41.697Z,868
2016-08-12T11:44:42.412Z,944
2016-08-12T11:45:42.414Z,952
2016-08-12T11:46:43.129Z,908
2016-08-12T11:47:41.719Z,924
2016-08-12T11:48:41.019Z,816
2016-08-12T11:49:42.487Z,824
2016-08-12T11:50:43.318Z,852
2016-08-12T11:51:42.451Z,876
2016-08-12T11:52:41.753Z,900
2016-08-12T11:53:41.773Z,908
2016-08-12T11:54:43.176Z,976
2016-08-12T11:55:41.787Z,1056
2016-08-12T11:56:41.070Z,1196
2016-08-12T11:57:41.833Z,1308
2016-08-12T11:58:41.793Z,1228
2016-08-12T11:59:43.211Z,1184
2016-08-12T12:00:41.804Z,1188
2016-08-12T12:01:43.319Z,1260
2016-08-12T12:02:41.106Z,1404
2016-08-12T12:03:42.538Z,1488
2016-08-12T12:04:42.539Z,1456
2016-08-12T12:05:43.246Z,1400
2016-08-12T12:06:42.546Z,1328
2016-08-12T12:07:42.558Z,1340
2016-08-12T12:08:42.559Z,1268
2016-08-12T12:09:42.567Z,1328
2016-08-12T12:10:42.631Z,1468
2016-08-12T12:11:42.579Z,1632
2016-08-12T12:12:42.888Z,1640
2016-08-12T12:13:42.593Z,1684
2016-08-12T12:14:44.217Z,1624
2016-08-12T12:15:41.956Z,1760
2016-08-12T12:16:43.373Z,1676
2016-08-12T12:17:41.968Z,1784
2016-08-12T12:18:42.627Z,1824
2016-08-12T12:19:42.630Z,1800
2016-08-12T12:20:41.934Z,1664
2016-08-12T12:21:43.352Z,1604
2016-08-12T12:22:41.943Z,1608
2016-08-12T12:23:42.452Z,1620
2016-08-12T12:24:41.953Z,1508
2016-08-12T12:25:41.966Z,1320
2016-08-12T12:26:43.384Z,1164
2016-08-12T12:27:42.985Z,1152
2016-08-12T12:28:42.687Z,1096
2016-08-12T12:29:42.702Z,1232
2016-08-12T12:30:42.755Z,1288
2016-08-12T12:31:42.029Z,1356
2016-08-12T12:32:42.765Z,1144
2016-08-12T12:33:41.310Z,988
2016-08-12T12:34:42.022Z,1012
2016-08-12T12:35:42.785Z,1292
2016-08-12T12:36:44.588Z,1368
2016-08-12T12:37:43.455Z,1644
2016-08-12T12:38:43.963Z,1764
2016-08-12T12:39:42.054Z,1752
2016-08-12T12:40:42.064Z,1760
2016-08-12T12:41:42.068Z,1756
2016-08-12T12:42:42.130Z,1740
2016-08-12T12:43:43.499Z,1688
2016-08-12T12:44:42.088Z,1732
2016-08-12T12:45:43.506Z,1752
2016-08-12T12:46:42.807Z,1752
2016-08-12T12:47:43.260Z,1736
2016-08-12T12:48:43.533Z,1652
2016-08-12T12:49:42.371Z,1648
2016-08-12T12:50:41.420Z,1764
2016-08-12T12:51:43.705Z,1732
2016-08-12T12:52:43.554Z,1652
2016-08-12T12:53:42.144Z,1532
2016-08-12T12:54:43.577Z,1500
2016-08-12T12:55:42.865Z,1244
2016-08-12T12:56:42.875Z,1104
2016-08-12T12:57:42.183Z,1064
2016-08-12T12:58:43.989Z,1080
2016-08-12T12:59:43.875Z,1140
2016-08-12T13:00:42.195Z,1112
2016-08-12T13:01:42.909Z,1220
2016-08-12T13:02:43.818Z,1296
2016-08-12T13:03:41.509Z,1404
2016-08-12T13:04:42.976Z,1380
2016-08-12T13:05:42.932Z,1308
2016-08-12T13:06:42.951Z,1264
2016-08-12T13:07:42.241Z,1308
2016-08-12T13:08:43.006Z,1428
2016-08-12T13:09:43.713Z,1568
2016-08-12T13:10:42.971Z,1708
2016-08-12T13:11:42.262Z,1772
2016-08-12T13:12:42.287Z,1820
2016-08-12T13:13:41.685Z,1748
2016-08-12T13:14:43.047Z,1772
2016-08-12T13:15:42.302Z,1884
2016-08-12T13:16:43.009Z,1920
2016-08-12T13:17:42.304Z,1872
2016-08-12T13:18:43.775Z,1828
2016-08-12T13:19:43.031Z,1728
2016-08-12T13:20:43.741Z,1680
2016-08-12T13:21:43.088Z,1584
2016-08-12T13:22:42.347Z,1572
2016-08-12T13:23:43.100Z,1476
2016-08-12T13:24:43.806Z,1404
2016-08-12T13:25:42.452Z,1420
2016-08-12T13:26:41.655Z,1560
2016-08-12T13:27:42.377Z,1568
2016-08-12T13:28:42.375Z,1744
2016-08-12T13:29:43.089Z,1648
2016-08-12T13:30:41.682Z,1704
2016-08-12T13:31:43.104Z,1644
2016-08-12T13:32:42.459Z,1624
2016-08-12T13:33:42.409Z,1476
2016-08-12T13:34:42.418Z,1424
2016-08-12T13:35:43.177Z,1416
2016-08-12T13:36:43.133Z,1408
2016-08-12T13:37:43.140Z,1460
2016-08-12T13:38:43.855Z,1404
2016-08-12T13:39:43.865Z,1316
2016-08-12T13:40:41.752Z,1304
2016-08-12T13:41:43.166Z,1372
2016-08-12T13:42:43.183Z,1480
2016-08-12T13:43:43.944Z,1540
2016-08-12T13:44:43.455Z,1556
2016-08-12T13:45:42.536Z,1520
2016-08-12T13:46:43.600Z,1524
2016-08-12T13:47:43.930Z,1552
2016-08-12T13:48:42.505Z,1524
2016-08-12T13:49:42.521Z,1440
2016-08-12T13:50:43.238Z,1376
2016-08-12T13:51:43.243Z,1392
2016-08-12T13:52:42.593Z,1376
2016-08-12T13:53:42.540Z,1332
2016-08-12T13:54:42.544Z,1296
2016-08-12T13:55:43.779Z,1324
2016-08-12T13:56:43.271Z,1360
2016-08-12T13:57:43.983Z,1376